Time;durP1;ratioP1;P1;durP2;ratioP2;P2;SDS_P1;SDS_P2;PMS_P1;PMS_P2;Temp;Humidity;BMP_temperature;BMP_pressure;BME280_temperature;BME280_humidity;BME280_pressure;Samples;Min_cycle;Max_cycle;Signal;HPM_P1;HPM_P2
2023/02/17 00:00:00;;;;;;;78.68;46.95;;;9.10;99.90;;;;;;5093014;28;20032;-65
2023/02/17 00:02:26;;;;;;;80.82;47.05;;;9.10;99.90;;;;;;5095372;28;20028;-65
2023/02/17 00:04:52;;;;;;;81.47;46.78;;;9.10;99.90;;;;;;5097188;28;20059;-65
2023/02/17 00:07:18;;;;;;;78.28;46.78;;;9.10;99.90;;;;;;5097206;28;20063;-65
2023/02/17 00:09:44;;;;;;;80.57;47.30;;;9.10;99.90;;;;;;5097348;28;20039;-65
2023/02/17 00:12:09;;;;;;;82.13;48.97;;;9.20;99.90;;;;;;5097126;28;20028;-65
2023/02/17 00:14:37;;;;;;;82.32;48.95;;;9.10;99.90;;;;;;5095936;28;20036;-65
2023/02/17 00:17:03;;;;;;;84.30;48.92;;;9.20;99.90;;;;;;5095803;28;20021;-65
2023/02/17 00:19:28;;;;;;;81.35;49.08;;;9.20;99.90;;;;;;5096889;28;20072;-65
2023/02/17 00:21:56;;;;;;;88.00;50.95;;;9.20;99.90;;;;;;5096831;28;20107;-65
2023/02/17 00:24:23;;;;;;;83.55;49.85;;;9.30;99.90;;;;;;5095714;28;20028;-64
2023/02/17 00:26:49;;;;;;;85.78;51.60;;;9.30;99.90;;;;;;5096823;28;20109;-65
2023/02/17 00:29:15;;;;;;;79.65;50.20;;;9.30;99.90;;;;;;5096934;28;20060;-65
2023/02/17 00:31:41;;;;;;;92.78;50.67;;;9.30;99.90;;;;;;5096946;28;20039;-65
2023/02/17 00:34:06;;;;;;;87.47;50.10;;;9.30;99.90;;;;;;5096941;28;20028;-65
2023/02/17 00:36:32;;;;;;;86.40;49.53;;;9.30;99.90;;;;;;5096683;28;20038;-65
2023/02/17 00:38:57;;;;;;;83.90;51.03;;;9.40;99.90;;;;;;5096708;28;20077;-65
2023/02/17 00:41:25;;;;;;;90.65;53.65;;;9.40;99.90;;;;;;5096267;28;20052;-65
2023/02/17 00:43:51;;;;;;;82.00;49.97;;;9.30;99.90;;;;;;5095318;28;20142;-65
2023/02/17 00:46:17;;;;;;;82.50;48.85;;;9.40;99.90;;;;;;5095430;28;20525;-65
2023/02/17 00:48:44;;;;;;;90.22;49.55;;;9.40;99.90;;;;;;5096447;28;20539;-65
2023/02/17 00:51:10;;;;;;;89.20;49.70;;;9.40;99.90;;;;;;5096407;28;20111;-65
2023/02/17 00:53:35;;;;;;;77.60;47.58;;;9.40;99.90;;;;;;5096212;28;20454;-64
2023/02/17 00:56:01;;;;;;;77.40;47.30;;;9.40;99.90;;;;;;5096172;28;20070;-65
2023/02/17 00:58:27;;;;;;;75.35;45.45;;;9.50;99.90;;;;;;5096142;28;20436;-65
2023/02/17 01:00:55;;;;;;;75.35;44.58;;;9.50;99.90;;;;;;5095958;28;20032;-65
2023/02/17 01:03:20;;;;;;;77.22;44.15;;;9.50;99.90;;;;;;5094973;28;20085;-65
2023/02/17 01:05:48;;;;;;;74.03;42.40;;;9.50;99.90;;;;;;5095854;28;20055;-65
2023/02/17 01:08:15;;;;;;;70.30;41.85;;;9.50;99.90;;;;;;5096054;28;20059;-64
2023/02/17 01:10:43;;;;;;;75.07;40.28;;;9.50;99.90;;;;;;5096101;28;20039;-65
2023/02/17 01:13:09;;;;;;;68.03;40.00;;;9.60;99.90;;;;;;5095521;28;20031;-65
2023/02/17 01:15:38;;;;;;;65.78;39.35;;;9.60;99.90;;;;;;5094646;28;20536;-64
2023/02/17 01:18:04;;;;;;;62.33;36.33;;;9.60;99.90;;;;;;5095899;28;20028;-64
2023/02/17 01:20:33;;;;;;;64.72;36.22;;;9.70;99.90;;;;;;5095670;28;20038;-64
2023/02/17 01:22:59;;;;;;;58.20;35.33;;;9.70;99.90;;;;;;5095939;28;20383;-65
2023/02/17 01:25:24;;;;;;;57.67;34.40;;;9.70;99.90;;;;;;5095664;28;20032;-64
2023/02/17 01:27:50;;;;;;;59.45;33.47;;;9.70;99.90;;;;;;5095840;28;20473;-64
2023/02/17 01:30:15;;;;;;;58.80;34.00;;;9.80;99.90;;;;;;5095616;28;20046;-65
2023/02/17 01:32:41;;;;;;;57.97;32.35;;;9.80;99.90;;;;;;5095537;28;20056;-64
2023/02/17 01:35:06;;;;;;;56.00;33.22;;;9.80;99.90;;;;;;5095497;28;20028;-64
2023/02/17 01:37:32;;;;;;;56.00;32.42;;;9.90;99.90;;;;;;5095588;28;20405;-65
2023/02/17 01:39:58;;;;;;;56.40;31.70;;;9.80;99.90;;;;;;5095012;28;20402;-65
2023/02/17 01:42:24;;;;;;;56.65;31.40;;;9.80;99.90;;;;;;5095545;28;20032;-65
2023/02/17 01:45:19;;;;;;;48.45;30.23;;;9.80;99.90;;;;;;5095526;28;20063;-64
2023/02/17 01:48:04;;;;;;;50.95;31.27;;;9.80;99.90;;;;;;5095032;28;20020;-64
2023/02/17 01:50:34;;;;;;;52.47;32.97;;;9.80;99.90;;;;;;5095187;28;20397;-65
2023/02/17 01:53:03;;;;;;;50.75;30.95;;;9.80;99.90;;;;;;5094020;28;20449;-64
2023/02/17 01:55:31;;;;;;;50.70;30.83;;;9.80;99.90;;;;;;5095109;28;20028;-65
2023/02/17 01:57:59;;;;;;;53.50;31.98;;;9.90;99.90;;;;;;5095061;28;20047;-65
2023/02/17 02:00:27;;;;;;;51.33;30.90;;;9.90;99.90;;;;;;5094940;28;20024;-65
2023/02/17 02:02:53;;;;;;;52.45;31.27;;;9.90;99.90;;;;;;5094921;28;20020;-65
2023/02/17 02:05:20;;;;;;;53.60;33.85;;;9.80;99.90;;;;;;5094960;28;20051;-65
2023/02/17 02:07:47;;;;;;;52.53;32.20;;;9.80;99.90;;;;;;5094848;28;20015;-65
2023/02/17 02:10:14;;;;;;;58.70;34.17;;;9.80;99.90;;;;;;5093658;28;20035;-65
2023/02/17 02:12:41;;;;;;;55.22;34.42;;;9.80;99.90;;;;;;5093690;28;20527;-65
2023/02/17 02:15:13;;;;;;;61.08;34.40;;;9.80;99.90;;;;;;5095016;28;20540;-65
2023/02/17 02:18:12;;;;;;;57.35;34.15;;;9.80;99.90;;;;;;5094937;28;20039;-65
2023/02/17 02:21:17;;;;;;;66.25;36.15;;;9.80;99.90;;;;;;5094476;28;20055;-65
2023/02/17 02:24:07;;;;;;;62.30;37.38;;;9.80;99.90;;;;;;5094185;28;20380;-65
2023/02/17 02:27:12;;;;;;;64.18;37.67;;;9.80;99.90;;;;;;5094650;28;20027;-65
2023/02/17 02:30:06;;;;;;;65.30;39.05;;;9.80;99.90;;;;;;5094311;28;20062;-65
2023/02/17 02:32:54;;;;;;;63.65;39.90;;;9.70;99.90;;;;;;5094288;28;20028;-65
2023/02/17 02:35:57;;;;;;;69.70;40.47;;;9.70;99.90;;;;;;5094492;28;20038;-65
2023/02/17 02:38:31;;;;;;;72.75;42.97;;;9.80;99.90;;;;;;5094504;28;20034;-65
2023/02/17 02:41:12;;;;;;;73.55;41.97;;;9.70;99.90;;;;;;5094029;28;20071;-65
2023/02/17 02:43:37;;;;;;;78.13;42.97;;;9.70;99.90;;;;;;5094523;28;20024;-65
2023/02/17 02:46:03;;;;;;;77.30;46.00;;;9.70;99.90;;;;;;5094110;28;20077;-65
2023/02/17 02:48:29;;;;;;;76.90;45.55;;;9.70;99.90;;;;;;5094096;28;20035;-65
2023/02/17 02:51:06;;;;;;;82.57;46.72;;;9.70;99.90;;;;;;5094187;28;20482;-65
2023/02/17 02:54:00;;;;;;;82.18;45.25;;;9.70;99.90;;;;;;5094207;28;20115;-65
2023/02/17 02:56:52;;;;;;;82.78;44.78;;;9.70;99.90;;;;;;5093734;28;20031;-65
2023/02/17 03:02:26;;;;;;;81.22;47.47;;;9.70;99.90;;;;;;5111052;27;20870;-65
2023/02/17 03:05:01;;;;;;;82.63;45.92;;;9.70;99.90;;;;;;5111010;28;20028;-65
2023/02/17 03:07:33;;;;;;;88.80;45.83;;;9.70;99.90;;;;;;5110874;28;20028;-65
2023/02/17 03:10:00;;;;;;;77.03;44.50;;;9.70;99.90;;;;;;5110970;28;20133;-65
2023/02/17 03:12:28;;;;;;;79.97;45.55;;;9.70;99.90;;;;;;5111006;28;20039;-65
2023/02/17 03:14:59;;;;;;;77.47;44.50;;;9.70;99.90;;;;;;5110931;28;20032;-64
2023/02/17 03:17:25;;;;;;;78.63;44.00;;;9.70;99.90;;;;;;5110855;28;20458;-65
2023/02/17 03:19:51;;;;;;;76.15;45.80;;;9.70;99.90;;;;;;5110906;28;20128;-65
2023/02/17 03:22:30;;;;;;;76.63;44.60;;;9.80;99.90;;;;;;5110956;28;20072;-64
2023/02/17 03:24:56;;;;;;;79.72;43.33;;;9.80;99.90;;;;;;5110729;28;20542;-64
2023/02/17 03:27:21;;;;;;;74.93;42.42;;;9.80;99.90;;;;;;5110708;28;20015;-65
2023/02/17 03:29:47;;;;;;;72.25;42.08;;;9.80;99.90;;;;;;5110629;28;20474;-65
2023/02/17 03:32:12;;;;;;;71.80;43.55;;;9.80;99.90;;;;;;5110596;28;20473;-64
2023/02/17 03:34:38;;;;;;;68.22;41.05;;;9.80;99.90;;;;;;5110580;28;20121;-64
2023/02/17 03:37:04;;;;;;;70.30;41.38;;;9.90;99.90;;;;;;5110426;28;20035;-64
2023/02/17 03:39:30;;;;;;;66.93;39.78;;;9.90;99.90;;;;;;5110379;28;20493;-64
2023/02/17 03:41:55;;;;;;;60.10;38.67;;;9.90;99.90;;;;;;5110463;28;20115;-64
2023/02/17 03:44:21;;;;;;;63.80;39.65;;;9.90;99.90;;;;;;5110381;28;20108;-64
2023/02/17 03:46:47;;;;;;;58.85;38.20;;;9.90;99.90;;;;;;5110361;28;20027;-64
2023/02/17 03:49:12;;;;;;;62.00;38.30;;;9.90;99.90;;;;;;5110238;28;20032;-64
2023/02/17 03:51:38;;;;;;;59.53;36.80;;;9.90;99.90;;;;;;5110170;28;20034;-64
2023/02/17 03:54:04;;;;;;;56.80;35.33;;;10.00;99.90;;;;;;5110368;28;20082;-64
2023/02/17 03:56:30;;;;;;;53.47;34.00;;;9.90;99.90;;;;;;5110095;28;20085;-65
2023/02/17 03:58:56;;;;;;;50.60;32.58;;;9.90;99.90;;;;;;5110143;28;20416;-64
2023/02/17 04:01:21;;;;;;;50.47;32.30;;;10.00;99.90;;;;;;5109784;28;20147;-64
2023/02/17 04:03:47;;;;;;;49.63;30.55;;;10.00;99.90;;;;;;5110053;28;20434;-64
2023/02/17 04:06:12;;;;;;;50.47;31.30;;;10.00;99.90;;;;;;5108933;28;20024;-64
2023/02/17 04:08:39;;;;;;;47.05;30.67;;;10.00;99.90;;;;;;5109859;28;20466;-64
2023/02/17 04:11:06;;;;;;;47.72;30.52;;;10.00;99.90;;;;;;5109335;28;20028;-64
2023/02/17 04:13:32;;;;;;;45.95;29.45;;;10.10;99.90;;;;;;5095661;28;20020;-65
2023/02/17 04:16:00;;;;;;;46.10;29.02;;;10.10;99.90;;;;;;5096333;28;20474;-64
2023/02/17 04:18:26;;;;;;;44.58;28.25;;;10.10;99.90;;;;;;5096149;28;20501;-64
2023/02/17 04:20:53;;;;;;;45.10;27.85;;;10.10;99.90;;;;;;5096078;28;20456;-65
2023/02/17 04:23:19;;;;;;;40.03;27.83;;;;;;;;;;5096105;28;20020;-64
2023/02/17 04:25:45;;;;;;;41.00;25.75;;;10.10;99.90;;;;;;5096018;28;20054;-64
2023/02/17 04:28:11;;;;;;;42.60;27.65;;;10.10;99.90;;;;;;5094908;28;20028;-64
2023/02/17 04:30:37;;;;;;;45.35;28.15;;;10.20;99.90;;;;;;5095857;28;20492;-64
2023/02/17 04:33:03;;;;;;;40.25;25.02;;;10.20;99.90;;;;;;5095769;28;20032;-64
2023/02/17 04:35:28;;;;;;;39.10;26.10;;;10.20;99.90;;;;;;5095793;28;20032;-64
2023/02/17 04:37:54;;;;;;;38.28;26.33;;;10.20;99.90;;;;;;5095922;28;20028;-64
2023/02/17 04:40:21;;;;;;;35.60;25.27;;;10.20;99.90;;;;;;5095664;28;20047;-64
2023/02/17 04:42:46;;;;;;;34.47;23.50;;;10.30;99.90;;;;;;5094620;28;20020;-64
2023/02/17 04:45:14;;;;;;;34.35;23.15;;;10.30;99.90;;;;;;5095537;28;20099;-64
2023/02/17 04:47:40;;;;;;;29.90;21.77;;;10.30;99.90;;;;;;5095870;28;20028;-64
2023/02/17 04:50:08;;;;;;;32.10;22.13;;;10.30;99.90;;;;;;5094200;28;20062;-64
2023/02/17 04:52:34;;;;;;;31.27;22.50;;;10.30;99.90;;;;;;5095486;28;20027;-64
2023/02/17 04:54:59;;;;;;;31.15;20.90;;;10.30;99.90;;;;;;5095638;28;20028;-64
2023/02/17 04:57:26;;;;;;;29.55;21.50;;;10.30;99.90;;;;;;5095340;28;20031;-64
2023/02/17 04:59:51;;;;;;;31.30;20.52;;;10.30;99.90;;;;;;5093784;28;20055;-65
2023/02/17 05:02:17;;;;;;;26.88;20.15;;;10.40;99.90;;;;;;5095558;28;20020;-64
2023/02/17 05:04:43;;;;;;;27.98;19.33;;;10.40;99.90;;;;;;5095308;28;20035;-64
2023/02/17 05:07:08;;;;;;;31.33;19.67;;;10.40;99.90;;;;;;5095139;28;20028;-64
2023/02/17 05:09:34;;;;;;;29.05;20.23;;;10.40;99.90;;;;;;5095551;28;20034;-64
2023/02/17 05:11:59;;;;;;;29.30;19.70;;;10.50;99.90;;;;;;5094832;28;20062;-64
2023/02/17 05:14:25;;;;;;;27.25;19.10;;;10.50;99.90;;;;;;5095256;28;20032;-65
2023/02/17 05:16:50;;;;;;;28.27;20.45;;;10.50;99.90;;;;;;5095037;28;20024;-65
2023/02/17 05:19:16;;;;;;;25.73;19.05;;;10.50;99.90;;;;;;5095043;28;20024;-64
2023/02/17 05:21:41;;;;;;;26.73;19.23;;;10.50;99.90;;;;;;5094796;28;20024;-65
2023/02/17 05:24:07;;;;;;;26.15;18.90;;;10.50;99.90;;;;;;5093818;28;20423;-64
2023/02/17 05:26:32;;;;;;;27.50;18.80;;;10.50;99.90;;;;;;5094721;28;20049;-64
2023/02/17 05:28:58;;;;;;;26.50;19.00;;;10.50;99.90;;;;;;5094678;28;20496;-64
2023/02/17 05:31:24;;;;;;;26.33;18.73;;;10.50;99.90;;;;;;5094938;28;20461;-65
2023/02/17 05:33:49;;;;;;;25.85;17.95;;;10.60;99.90;;;;;;5093611;28;20039;-64
2023/02/17 05:36:15;;;;;;;29.30;19.17;;;10.60;99.90;;;;;;5094735;28;20024;-64
2023/02/17 05:38:41;;;;;;;24.58;17.92;;;10.60;99.90;;;;;;5094788;28;20093;-64
2023/02/17 05:41:07;;;;;;;26.02;17.77;;;10.60;99.90;;;;;;5094535;28;20079;-64
2023/02/17 05:43:32;;;;;;;27.90;16.52;;;10.60;99.90;;;;;;5094431;28;20032;-64
2023/02/17 05:46:05;;;;;;;22.25;16.85;;;10.60;99.90;;;;;;5094475;28;20512;-64
2023/02/17 05:48:31;;;;;;;28.13;17.98;;;10.60;99.90;;;;;;5094640;28;20020;-64
2023/02/17 05:50:56;;;;;;;23.08;17.17;;;10.60;99.90;;;;;;5094352;28;20469;-64
2023/02/17 05:53:22;;;;;;;24.40;16.83;;;10.70;99.90;;;;;;5094310;28;20371;-64
2023/02/17 05:55:47;;;;;;;24.60;17.48;;;10.70;99.90;;;;;;5093212;28;20050;-64
2023/02/17 05:58:13;;;;;;;22.63;16.45;;;10.70;99.90;;;;;;5094232;28;20031;-64
2023/02/17 06:00:38;;;;;;;29.30;17.73;;;10.70;99.90;;;;;;5093787;28;20040;-64
2023/02/17 06:03:04;;;;;;;26.75;17.65;;;10.70;99.90;;;;;;5094114;28;20028;-64
2023/02/17 06:05:29;;;;;;;22.02;16.48;;;10.70;99.90;;;;;;5094239;28;20436;-64
2023/02/17 06:07:55;;;;;;;25.58;16.98;;;10.70;99.90;;;;;;5094222;28;20027;-64
2023/02/17 06:10:20;;;;;;;26.25;17.92;;;10.70;99.90;;;;;;5093865;28;20478;-64
2023/02/17 06:12:46;;;;;;;24.13;16.73;;;10.70;99.90;;;;;;5093991;28;20040;-65
2023/02/17 06:15:12;;;;;;;23.80;16.73;;;10.70;99.90;;;;;;5093948;28;20043;-64
2023/02/17 06:17:37;;;;;;;21.95;16.30;;;10.70;99.90;;;;;;5093847;28;20034;-64
2023/02/17 06:20:04;;;;;;;22.60;16.45;;;10.80;99.90;;;;;;5093718;28;20034;-64
2023/02/17 06:22:29;;;;;;;23.92;17.52;;;10.80;99.90;;;;;;5092643;28;20111;-64
2023/02/17 06:24:56;;;;;;;28.90;18.10;;;10.80;99.90;;;;;;5093866;28;20107;-64
2023/02/17 06:27:22;;;;;;;26.90;17.65;;;10.80;99.90;;;;;;5093839;28;20414;-64
2023/02/17 06:29:47;;;;;;;25.20;17.83;;;10.80;99.90;;;;;;5093773;28;20039;-64
2023/02/17 06:32:13;;;;;;;25.40;17.13;;;10.80;99.90;;;;;;5093504;28;20107;-63
2023/02/17 06:34:38;;;;;;;24.13;16.58;;;10.90;99.90;;;;;;5093529;28;20026;-64
2023/02/17 06:37:04;;;;;;;23.33;16.27;;;10.80;99.90;;;;;;5093507;28;20024;-64
2023/02/17 06:39:30;;;;;;;24.90;16.73;;;10.80;99.90;;;;;;5093660;28;20028;-64
2023/02/17 06:41:55;;;;;;;24.73;17.08;;;10.80;99.90;;;;;;5093437;28;20028;-64
2023/02/17 06:44:21;;;;;;;23.65;17.10;;;10.80;99.90;;;;;;5093634;28;20028;-64
2023/02/17 06:46:46;;;;;;;25.65;17.02;;;10.80;99.90;;;;;;5093707;28;20024;-65
2023/02/17 06:49:13;;;;;;;24.33;18.83;;;10.80;99.90;;;;;;5093492;28;20486;-64
2023/02/17 06:51:38;;;;;;;26.40;18.30;;;10.80;99.90;;;;;;5093327;28;20035;-64
2023/02/17 06:54:04;;;;;;;26.23;18.77;;;10.80;99.90;;;;;;5073346;28;20032;-64
2023/02/17 06:56:29;;;;;;;25.23;17.70;;;10.80;99.90;;;;;;5073159;28;20043;-65
2023/02/17 06:58:55;;;;;;;26.45;19.30;;;10.80;99.90;;;;;;5072772;28;20107;-65
2023/02/17 07:01:25;;;;;;;30.80;20.80;;;10.80;99.90;;;;;;5072841;28;20044;-65
2023/02/17 07:03:52;;;;;;;29.45;21.67;;;10.90;99.90;;;;;;5073087;28;20124;-64
2023/02/17 07:06:18;;;;;;;26.38;19.52;;;10.80;99.90;;;;;;5073066;28;20032;-65
2023/02/17 07:08:44;;;;;;;27.42;18.92;;;10.90;99.90;;;;;;5072984;28;20029;-64
2023/02/17 07:11:11;;;;;;;46.00;31.40;;;10.90;99.90;;;;;;5072925;28;20028;-65
2023/02/17 07:13:37;;;;;;;33.05;25.17;;;10.90;99.90;;;;;;5071707;28;20057;-65
2023/02/17 07:16:03;;;;;;;29.67;18.77;;;10.80;99.90;;;;;;5072827;28;20504;-65
2023/02/17 07:18:29;;;;;;;32.10;20.48;;;10.80;99.90;;;;;;5072826;28;20028;-65
2023/02/17 07:20:55;;;;;;;30.77;21.85;;;10.80;99.90;;;;;;5072783;28;20440;-65
2023/02/17 07:23:20;;;;;;;30.63;21.83;;;10.80;99.90;;;;;;5073007;28;20077;-66
2023/02/17 07:25:46;;;;;;;28.13;20.85;;;10.80;99.90;;;;;;5071867;28;20028;-65
2023/02/17 07:28:11;;;;;;;30.33;22.25;;;10.80;99.90;;;;;;5071954;28;20052;-65
2023/02/17 07:30:38;;;;;;;29.05;21.00;;;10.80;99.90;;;;;;5086307;28;20115;-65
2023/02/17 07:33:04;;;;;;;31.63;20.83;;;10.70;99.90;;;;;;5071627;28;20382;-65
2023/02/17 07:35:30;;;;;;;33.60;22.35;;;10.70;99.90;;;;;;5072414;28;20040;-64
2023/02/17 07:37:57;;;;;;;32.35;22.98;;;10.60;99.90;;;;;;5072562;28;20037;-64
2023/02/17 07:40:23;;;;;;;34.97;24.27;;;10.50;99.90;;;;;;5072117;28;20103;-64
2023/02/17 07:42:49;;;;;;;33.40;23.63;;;10.50;99.90;;;;;;5072342;28;20366;-65
2023/02/17 07:45:15;;;;;;;33.95;24.10;;;10.60;99.90;;;;;;5072430;28;20027;-65
2023/02/17 07:47:40;;;;;;;76.22;27.70;;;10.60;99.90;;;;;;5074312;28;20024;-64
2023/02/17 07:50:08;;;;;;;63.15;26.50;;;10.60;99.90;;;;;;5075885;28;20075;-65
2023/02/17 07:52:33;;;;;;;48.25;24.45;;;10.60;99.90;;;;;;5075820;28;20382;-64
2023/02/17 07:54:59;;;;;;;40.55;23.85;;;10.60;99.90;;;;;;5075373;28;20036;-64
2023/02/17 07:57:24;;;;;;;31.85;21.92;;;10.60;99.90;;;;;;5075991;28;20388;-64
2023/02/17 07:59:50;;;;;;;33.13;22.73;;;10.60;99.90;;;;;;5075301;28;20082;-64
2023/02/17 08:02:15;;;;;;;34.08;22.02;;;10.60;99.90;;;;;;5075436;28;20085;-64
2023/02/17 08:04:41;;;;;;;34.15;22.27;;;10.60;99.90;;;;;;5075765;28;20502;-68
2023/02/17 08:07:07;;;;;;;32.25;23.38;;;10.60;99.90;;;;;;5074361;28;20024;-64
2023/02/17 08:15:08;;;;;;;35.67;24.83;;;10.70;99.90;;;;;;5073788;28;20032;-65
2023/02/17 08:17:33;;;;;;;35.67;25.00;;;10.70;99.90;;;;;;5075547;28;20024;-65
2023/02/17 08:19:59;;;;;;;37.08;25.17;;;10.70;99.90;;;;;;5075352;28;20032;-64
2023/02/17 08:22:25;;;;;;;34.20;24.27;;;10.70;99.90;;;;;;5074987;28;20483;-64
2023/02/17 08:24:50;;;;;;;39.63;24.85;;;10.80;99.90;;;;;;5075088;28;20032;-64
2023/02/17 08:27:17;;;;;;;33.53;24.65;;;10.80;99.90;;;;;;5075089;28;20025;-64
2023/02/17 08:29:44;;;;;;;35.63;25.63;;;10.90;99.90;;;;;;5070515;28;20033;-64
2023/02/17 08:32:10;;;;;;;38.17;25.67;;;10.90;99.90;;;;;;5072580;28;20025;-64
2023/02/17 08:34:35;;;;;;;32.05;23.90;;;10.90;99.90;;;;;;5074830;28;20078;-65
2023/02/17 08:37:03;;;;;;;34.80;24.02;;;10.90;99.90;;;;;;5074450;28;20032;-65
2023/02/17 08:39:29;;;;;;;33.05;24.45;;;10.90;99.90;;;;;;5075247;28;20435;-65
2023/02/17 08:41:55;;;;;;;36.13;25.88;;;11.00;99.90;;;;;;5071860;28;20398;-64
2023/02/17 08:44:21;;;;;;;35.58;24.73;;;11.00;99.90;;;;;;5074701;28;20021;-64
2023/02/17 08:46:48;;;;;;;35.65;23.27;;;11.00;99.90;;;;;;5074617;28;20390;-64
2023/02/17 08:49:16;;;;;;;30.83;22.42;;;11.10;99.90;;;;;;5074122;28;20016;-64
2023/02/17 08:51:42;;;;;;;34.28;24.40;;;11.10;99.90;;;;;;5069332;28;20029;-64
2023/02/17 08:54:09;;;;;;;29.60;21.88;;;11.10;99.90;;;;;;5064979;28;20078;-64
2023/02/17 08:56:36;;;;;;;30.58;22.45;;;11.10;99.90;;;;;;5074711;28;20095;-64
2023/02/17 08:59:03;;;;;;;30.33;21.63;;;11.20;99.90;;;;;;5074618;28;20040;-64
2023/02/17 09:01:29;;;;;;;30.20;22.73;;;11.20;99.90;;;;;;5072935;28;20055;-64
2023/02/17 09:03:56;;;;;;;29.85;23.60;;;11.20;99.90;;;;;;5070166;28;20091;-64
2023/02/17 09:06:23;;;;;;;30.27;25.25;;;11.20;99.90;;;;;;5059687;28;20039;-64
2023/02/17 09:08:49;;;;;;;37.33;28.60;;;11.30;99.90;;;;;;5073780;28;20020;-65
2023/02/17 09:11:17;;;;;;;34.63;26.38;;;11.30;99.90;;;;;;5072373;28;20077;-64
2023/02/17 09:13:43;;;;;;;35.03;22.70;;;11.30;99.90;;;;;;5074004;28;20062;-65
2023/02/17 09:16:09;;;;;;;24.25;18.23;;;11.50;99.90;;;;;;5074380;28;20089;-63
2023/02/17 09:18:36;;;;;;;26.05;19.63;;;;;;;;;;5072851;28;20417;-63
2023/02/17 09:21:06;;;;;;;30.33;18.00;;;11.40;99.90;;;;;;5074366;28;20032;-64
2023/02/17 09:23:32;;;;;;;24.42;16.85;;;11.40;99.90;;;;;;5074172;28;20108;-64
2023/02/17 09:26:04;;;;;;;22.70;16.40;;;11.40;99.90;;;;;;5073682;28;20100;-64
2023/02/17 09:28:30;;;;;;;27.50;16.50;;;11.50;99.90;;;;;;5072737;28;20031;-63
2023/02/17 09:30:55;;;;;;;24.60;17.73;;;11.50;99.90;;;;;;5073967;28;20075;-63
2023/02/17 09:33:21;;;;;;;21.35;16.35;;;11.50;99.90;;;;;;5073937;28;20098;-63
2023/02/17 09:35:48;;;;;;;27.13;16.77;;;11.50;99.90;;;;;;5074111;28;20033;-64
2023/02/17 09:38:14;;;;;;;20.90;15.88;;;11.50;99.90;;;;;;5074423;28;20028;-64
2023/02/17 09:43:23;;;;;;;21.05;15.55;;;11.60;99.90;;;;;;5110879;27;20314;-63
2023/02/17 09:45:54;;;;;;;20.13;15.38;;;11.70;99.90;;;;;;5084714;28;20025;-63
2023/02/17 09:48:23;;;;;;;20.55;15.20;;;11.80;99.90;;;;;;5089084;28;20082;-63
2023/02/17 09:50:55;;;;;;;22.95;14.82;;;11.80;99.90;;;;;;5071408;28;20474;-63
2023/02/17 09:53:33;;;;;;;21.27;14.05;;;11.80;99.90;;;;;;5088440;28;20509;-64
2023/02/17 09:56:02;;;;;;;24.23;14.40;;;11.90;99.90;;;;;;5088610;28;20127;-64
2023/02/17 09:58:51;;;;;;;20.52;14.27;;;12.00;99.90;;;;;;5073239;28;20032;-63
2023/02/17 10:01:21;;;;;;;20.63;14.32;;;12.00;99.90;;;;;;5090641;28;20087;-64
2023/02/17 10:03:53;;;;;;;21.13;15.60;;;12.10;99.90;;;;;;5087505;28;20111;-64
2023/02/17 10:06:26;;;;;;;20.80;15.20;;;12.10;99.90;;;;;;5089488;28;20056;-63
2023/02/17 10:08:59;;;;;;;22.88;15.00;;;12.20;99.90;;;;;;5071469;28;20383;-64
2023/02/17 10:11:48;;;;;;;20.10;14.38;;;12.20;99.90;;;;;;5069797;28;20512;-63
2023/02/17 10:14:40;;;;;;;19.08;14.32;;;12.30;99.90;;;;;;5069896;28;20040;-63
2023/02/17 10:17:14;;;;;;;23.77;16.88;;;12.30;99.90;;;;;;5083682;28;20025;-63
2023/02/17 10:19:50;;;;;;;23.33;16.02;;;12.30;99.90;;;;;;5089902;28;20426;-63
2023/02/17 10:22:18;;;;;;;23.13;16.63;;;12.40;99.90;;;;;;5067696;28;20040;-63
2023/02/17 10:24:44;;;;;;;27.65;17.52;;;12.40;99.90;;;;;;5069758;28;20029;-63
2023/02/17 10:27:37;;;;;;;24.20;17.95;;;12.40;99.90;;;;;;5071046;28;20031;-63
2023/02/17 10:30:25;;;;;;;38.25;31.33;;;12.40;99.90;;;;;;5074684;28;20077;-64
2023/02/17 10:33:16;;;;;;;27.45;19.60;;;12.50;99.90;;;;;;5079909;28;20506;-64
2023/02/17 10:35:51;;;;;;;23.92;17.05;;;12.60;99.90;;;;;;5070257;28;20035;-64
2023/02/17 10:38:32;;;;;;;26.27;19.52;;;12.60;99.90;;;;;;5086016;28;20360;-63
2023/02/17 10:41:00;;;;;;;25.88;19.30;;;12.60;99.90;;;;;;5069562;28;20025;-64
2023/02/17 10:43:30;;;;;;;22.42;18.55;;;12.70;99.90;;;;;;5073139;28;20387;-64
2023/02/17 10:45:58;;;;;;;25.42;18.98;;;12.70;99.90;;;;;;5075205;28;20043;-66
2023/02/17 10:48:33;;;;;;;21.88;18.38;;;12.80;99.90;;;;;;5084826;28;20471;-65
2023/02/17 10:51:00;;;;;;;25.83;19.30;;;12.90;99.90;;;;;;5088845;28;20482;-64
2023/02/17 10:53:35;;;;;;;24.45;19.70;;;12.90;99.90;;;;;;5083336;28;20024;-63
2023/02/17 10:56:08;;;;;;;23.85;18.98;;;;;;;;;;5056008;28;20025;-64
2023/02/17 10:58:54;;;;;;;24.92;19.73;;;13.00;99.90;;;;;;5051686;28;20033;-64
2023/02/17 11:01:22;;;;;;;24.15;20.55;;;13.10;99.90;;;;;;5048409;28;20041;-65
2023/02/17 11:03:59;;;;;;;26.52;20.20;;;13.00;99.90;;;;;;5055346;28;20053;-65
2023/02/17 11:06:25;;;;;;;24.27;19.08;;;13.00;99.90;;;;;;5076159;28;20161;-64
2023/02/17 11:08:57;;;;;;;22.25;17.60;;;13.00;99.90;;;;;;5055552;28;20047;-64
2023/02/17 11:11:25;;;;;;;19.00;15.90;;;13.10;99.90;;;;;;5055486;28;20113;-64
2023/02/17 11:14:14;;;;;;;19.80;16.00;;;13.20;99.90;;;;;;5055527;28;20116;-63
2023/02/17 11:16:44;;;;;;;23.33;16.25;;;13.20;99.90;;;;;;5063748;28;20033;-64
2023/02/17 11:19:23;;;;;;;18.15;14.63;;;13.20;99.90;;;;;;5055035;28;20419;-64
2023/02/17 11:21:51;;;;;;;17.42;14.00;;;13.30;99.90;;;;;;5061454;28;20035;-64
2023/02/17 11:24:16;;;;;;;16.55;13.32;;;13.40;99.90;;;;;;5054748;28;20021;-64
2023/02/17 11:26:42;;;;;;;16.85;13.02;;;13.60;99.90;;;;;;5054666;28;20055;-63
2023/02/17 11:29:16;;;;;;;20.35;13.18;;;13.70;99.90;;;;;;5054405;28;20032;-64
2023/02/17 11:31:53;;;;;;;16.40;13.40;;;13.80;99.90;;;;;;5068209;28;20510;-65
2023/02/17 11:34:23;;;;;;;17.63;12.90;;;13.80;99.90;;;;;;5074531;28;20036;-65
2023/02/17 11:36:59;;;;;;;17.30;13.27;;;13.70;99.90;;;;;;5089863;28;20085;-64
2023/02/17 11:39:25;;;;;;;16.65;12.50;;;13.70;99.90;;;;;;5074807;28;20024;-65
2023/02/17 11:41:51;;;;;;;16.42;12.82;;;13.70;99.90;;;;;;5074287;28;20139;-64
2023/02/17 11:44:26;;;;;;;15.48;13.00;;;13.80;99.90;;;;;;5074746;28;20555;-64
2023/02/17 11:47:04;;;;;;;15.35;13.15;;;13.70;99.90;;;;;;5061142;28;20021;-65
2023/02/17 11:50:02;;;;;;;18.88;13.98;;;13.70;99.90;;;;;;5074716;28;20504;-64
2023/02/17 11:52:54;;;;;;;16.83;12.73;;;13.70;99.90;;;;;;5063658;28;20036;-65
2023/02/17 11:56:00;;;;;;;16.58;12.38;;;13.60;99.90;;;;;;5072667;28;20028;-64
2023/02/17 11:58:37;;;;;;;17.83;10.60;;;13.60;99.90;;;;;;5067439;28;20586;-65
2023/02/17 12:04:20;;;;;;;13.88;10.15;;;13.50;99.90;;;;;;5110677;27;20440;-63
2023/02/17 12:07:25;;;;;;;13.73;11.18;;;14.00;99.90;;;;;;5110824;28;20409;-62
2023/02/17 12:13:32;;;;;;;13.20;10.13;;;14.30;99.90;;;;;;5069907;28;20445;-63
2023/02/17 12:16:27;;;;;;;13.13;10.23;;;14.40;99.90;;;;;;5069950;28;20064;-63
2023/02/17 12:22:02;;;;;;;11.73;9.10;;;14.10;99.90;;;;;;5070411;28;20897;-62
2023/02/17 12:27:46;;;;;;;14.95;9.50;;;14.10;99.90;;;;;;5090433;28;20666;-62
2023/02/17 12:30:40;;;;;;;11.60;8.88;;;13.90;99.90;;;;;;5089655;28;20467;-63
2023/02/17 12:36:22;;;;;;;13.75;9.77;;;13.70;99.90;;;;;;5070285;28;20399;-63
2023/02/17 12:38:53;;;;;;;11.13;8.90;;;13.60;99.90;;;;;;5070002;28;20033;-63
2023/02/17 12:41:26;;;;;;;11.70;9.05;;;13.60;99.90;;;;;;5070242;28;20025;-63
2023/02/17 12:43:58;;;;;;;12.38;9.18;;;13.60;99.90;;;;;;5070350;28;20059;-63
2023/02/17 12:46:31;;;;;;;14.20;9.27;;;13.60;99.90;;;;;;5059660;28;20032;-65
2023/02/17 12:49:04;;;;;;;11.32;8.75;;;13.60;99.90;;;;;;5070197;28;20028;-63
2023/02/17 12:51:35;;;;;;;13.35;8.95;;;13.60;99.90;;;;;;5070144;28;20074;-64
2023/02/17 12:54:41;;;;;;;16.73;8.68;;;13.60;99.90;;;;;;5068877;28;20032;-64
2023/02/17 12:57:13;;;;;;;12.02;9.52;;;13.60;99.90;;;;;;5069581;28;20020;-64
2023/02/17 12:59:49;;;;;;;11.13;9.52;;;13.60;99.90;;;;;;5064160;28;20044;-63
2023/02/17 13:02:18;;;;;;;14.00;9.75;;;13.50;99.90;;;;;;5066239;28;20033;-64
2023/02/17 13:04:48;;;;;;;12.07;9.50;;;13.50;99.90;;;;;;5069463;28;20041;-63
2023/02/17 13:07:44;;;;;;;14.48;9.30;;;13.40;99.90;;;;;;5069390;28;20484;-63
2023/02/17 13:13:26;;;;;;;12.02;9.25;;;13.40;99.90;;;;;;5090203;27;20894;-64